sensor_id;sensor_type;location;lat;lon;timestamp;temperature;humidity
46976;DHT22;32724;51.094;6.996;2023-11-18T00:01:58;3.90;99.90
46976;DHT22;32724;51.094;6.996;2023-11-18T00:04:24;3.90;99.90
46976;DHT22;32724;51.094;6.996;2023-11-18T00:06:50;4.00;99.90
46976;DHT22;32724;51.094;6.996;2023-11-18T00:09:17;4.00;99.90
46976;DHT22;32724;51.094;6.996;2023-11-18T00:11:43;4.00;99.90
46976;DHT22;32724;51.094;6.996;2023-11-18T00:14:09;4.00;99.90
46976;DHT22;32724;51.094;6.996;2023-11-18T00:16:39;4.00;99.90
46976;DHT22;32724;51.094;6.996;2023-11-18T00:19:05;4.00;99.90
46976;DHT22;32724;51.094;6.996;2023-11-18T00:21:31;4.00;99.90
46976;DHT22;32724;51.094;6.996;2023-11-18T00:23:57;4.00;99.90
46976;DHT22;32724;51.094;6.996;2023-11-18T00:26:22;4.00;99.90
46976;DHT22;32724;51.094;6.996;2023-11-18T00:28:48;4.00;99.90
46976;DHT22;32724;51.094;6.996;2023-11-18T00:31:16;4.00;99.90
46976;DHT22;32724;51.094;6.996;2023-11-18T00:33:42;3.90;99.90
46976;DHT22;32724;51.094;6.996;2023-11-18T00:36:08;3.90;99.90
46976;DHT22;32724;51.094;6.996;2023-11-18T00:38:34;3.90;99.90
46976;DHT22;32724;51.094;6.996;2023-11-18T00:40:59;3.90;99.90
46976;DHT22;32724;51.094;6.996;2023-11-18T00:43:25;3.80;99.90
46976;DHT22;32724;51.094;6.996;2023-11-18T00:45:51;3.80;99.90
46976;DHT22;32724;51.094;6.996;2023-11-18T00:48:17;3.80;99.90
46976;DHT22;32724;51.094;6.996;2023-11-18T00:50:42;3.80;99.90
46976;DHT22;32724;51.094;6.996;2023-11-18T00:53:08;3.80;99.90
46976;DHT22;32724;51.094;6.996;2023-11-18T00:55:33;3.80;99.90
46976;DHT22;32724;51.094;6.996;2023-11-18T00:57:59;3.80;99.90
46976;DHT22;32724;51.094;6.996;2023-11-18T01:00:24;3.80;99.90
46976;DHT22;32724;51.094;6.996;2023-11-18T01:02:52;3.90;99.90
46976;DHT22;32724;51.094;6.996;2023-11-18T01:05:20;3.80;99.90
46976;DHT22;32724;51.094;6.996;2023-11-18T01:07:45;3.70;99.90
46976;DHT22;32724;51.094;6.996;2023-11-18T01:10:12;3.70;99.90
46976;DHT22;32724;51.094;6.996;2023-11-18T01:12:39;3.60;99.90
46976;DHT22;32724;51.094;6.996;2023-11-18T01:15:06;3.50;99.90
46976;DHT22;32724;51.094;6.996;2023-11-18T01:17:32;3.40;99.90
46976;DHT22;32724;51.094;6.996;2023-11-18T01:19:58;3.40;99.90
46976;DHT22;32724;51.094;6.996;2023-11-18T01:22:24;3.50;99.90
46976;DHT22;32724;51.094;6.996;2023-11-18T01:24:50;3.60;99.90
46976;DHT22;32724;51.094;6.996;2023-11-18T01:27:16;3.70;99.90
46976;DHT22;32724;51.094;6.996;2023-11-18T01:29:44;3.70;99.90
46976;DHT22;32724;51.094;6.996;2023-11-18T01:32:12;3.70;99.90
46976;DHT22;32724;51.094;6.996;2023-11-18T01:34:39;3.70;99.90
46976;DHT22;32724;51.094;6.996;2023-11-18T01:37:05;3.80;99.90
46976;DHT22;32724;51.094;6.996;2023-11-18T01:39:33;3.80;99.90
46976;DHT22;32724;51.094;6.996;2023-11-18T01:41:59;3.70;99.90
46976;DHT22;32724;51.094;6.996;2023-11-18T01:44:25;3.70;99.90
46976;DHT22;32724;51.094;6.996;2023-11-18T01:46:54;3.70;99.90
46976;DHT22;32724;51.094;6.996;2023-11-18T01:49:20;3.70;99.90
46976;DHT22;32724;51.094;6.996;2023-11-18T01:51:46;3.60;99.90
46976;DHT22;32724;51.094;6.996;2023-11-18T01:54:12;3.70;99.90
46976;DHT22;32724;51.094;6.996;2023-11-18T01:56:43;3.80;99.90
46976;DHT22;32724;51.094;6.996;2023-11-18T01:59:09;3.80;99.90
46976;DHT22;32724;51.094;6.996;2023-11-18T02:01:35;3.80;99.90
46976;DHT22;32724;51.094;6.996;2023-11-18T02:04:02;3.70;99.90
46976;DHT22;32724;51.094;6.996;2023-11-18T02:06:28;3.70;99.90
46976;DHT22;32724;51.094;6.996;2023-11-18T02:08:53;3.70;99.90
46976;DHT22;32724;51.094;6.996;2023-11-18T02:11:30;3.70;99.90
46976;DHT22;32724;51.094;6.996;2023-11-18T02:14:00;3.70;99.90
46976;DHT22;32724;51.094;6.996;2023-11-18T02:16:28;3.80;99.90
46976;DHT22;32724;51.094;6.996;2023-11-18T02:18:54;3.80;99.90
46976;DHT22;32724;51.094;6.996;2023-11-18T02:21:22;3.80;99.90
46976;DHT22;32724;51.094;6.996;2023-11-18T02:23:49;3.80;99.90
46976;DHT22;32724;51.094;6.996;2023-11-18T02:26:22;3.80;99.90
46976;DHT22;32724;51.094;6.996;2023-11-18T02:28:47;3.80;99.90
46976;DHT22;32724;51.094;6.996;2023-11-18T02:31:20;3.70;99.90
46976;DHT22;32724;51.094;6.996;2023-11-18T02:34:02;3.80;99.90
46976;DHT22;32724;51.094;6.996;2023-11-18T02:36:38;3.80;99.90
46976;DHT22;32724;51.094;6.996;2023-11-18T02:39:08;3.80;99.90
46976;DHT22;32724;51.094;6.996;2023-11-18T02:41:38;3.80;99.90
46976;DHT22;32724;51.094;6.996;2023-11-18T02:44:06;3.80;99.90
46976;DHT22;32724;51.094;6.996;2023-11-18T02:46:36;3.80;99.90
46976;DHT22;32724;51.094;6.996;2023-11-18T02:49:03;3.80;99.90
46976;DHT22;32724;51.094;6.996;2023-11-18T02:51:29;3.80;99.90
46976;DHT22;32724;51.094;6.996;2023-11-18T02:53:57;3.80;99.90
46976;DHT22;32724;51.094;6.996;2023-11-18T02:56:22;3.80;99.90
46976;DHT22;32724;51.094;6.996;2023-11-18T02:58:48;3.80;99.90
46976;DHT22;32724;51.094;6.996;2023-11-18T03:01:13;3.70;99.90
46976;DHT22;32724;51.094;6.996;2023-11-18T03:03:39;3.60;99.90
46976;DHT22;32724;51.094;6.996;2023-11-18T03:06:05;3.60;99.90
46976;DHT22;32724;51.094;6.996;2023-11-18T03:08:31;3.60;99.90
46976;DHT22;32724;51.094;6.996;2023-11-18T03:10:57;3.60;99.90
46976;DHT22;32724;51.094;6.996;2023-11-18T03:13:24;3.70;99.90
46976;DHT22;32724;51.094;6.996;2023-11-18T03:15:50;3.70;99.90
46976;DHT22;32724;51.094;6.996;2023-11-18T03:18:16;3.70;99.90
46976;DHT22;32724;51.094;6.996;2023-11-18T03:20:41;3.70;99.90
46976;DHT22;32724;51.094;6.996;2023-11-18T03:23:07;3.70;99.90
46976;DHT22;32724;51.094;6.996;2023-11-18T03:25:35;3.70;99.90
46976;DHT22;32724;51.094;6.996;2023-11-18T03:28:01;3.70;99.90
46976;DHT22;32724;51.094;6.996;2023-11-18T03:30:27;3.70;99.90
46976;DHT22;32724;51.094;6.996;2023-11-18T03:32:54;3.70;99.90
46976;DHT22;32724;51.094;6.996;2023-11-18T03:35:20;3.70;99.90
46976;DHT22;32724;51.094;6.996;2023-11-18T03:37:45;3.70;99.90
46976;DHT22;32724;51.094;6.996;2023-11-18T03:40:13;3.80;99.90
46976;DHT22;32724;51.094;6.996;2023-11-18T03:42:40;3.80;99.90
46976;DHT22;32724;51.094;6.996;2023-11-18T03:45:06;3.80;99.90
46976;DHT22;32724;51.094;6.996;2023-11-18T03:47:32;3.70;99.90
46976;DHT22;32724;51.094;6.996;2023-11-18T03:49:59;3.70;99.90
46976;DHT22;32724;51.094;6.996;2023-11-18T03:52:25;3.80;99.90
46976;DHT22;32724;51.094;6.996;2023-11-18T03:54:51;3.70;99.90
46976;DHT22;32724;51.094;6.996;2023-11-18T03:57:16;3.70;99.90
46976;DHT22;32724;51.094;6.996;2023-11-18T03:59:42;3.80;99.90
46976;DHT22;32724;51.094;6.996;2023-11-18T04:02:08;3.80;99.90
46976;DHT22;32724;51.094;6.996;2023-11-18T04:04:34;3.90;99.90
46976;DHT22;32724;51.094;6.996;2023-11-18T04:07:00;3.70;99.90
46976;DHT22;32724;51.094;6.996;2023-11-18T04:09:28;3.80;99.90
46976;DHT22;32724;51.094;6.996;2023-11-18T04:11:53;3.80;99.90
46976;DHT22;32724;51.094;6.996;2023-11-18T04:14:19;3.90;99.90
46976;DHT22;32724;51.094;6.996;2023-11-18T04:16:46;3.90;99.90
46976;DHT22;32724;51.094;6.996;2023-11-18T04:19:12;3.90;99.90
46976;DHT22;32724;51.094;6.996;2023-11-18T04:21:38;3.60;99.90
46976;DHT22;32724;51.094;6.996;2023-11-18T04:24:04;3.70;99.90
46976;DHT22;32724;51.094;6.996;2023-11-18T04:26:31;3.70;99.90
46976;DHT22;32724;51.094;6.996;2023-11-18T04:28:57;3.60;99.90
46976;DHT22;32724;51.094;6.996;2023-11-18T04:31:22;3.50;99.90
46976;DHT22;32724;51.094;6.996;2023-11-18T04:33:48;3.60;99.90
46976;DHT22;32724;51.094;6.996;2023-11-18T04:36:14;3.60;99.90
46976;DHT22;32724;51.094;6.996;2023-11-18T04:38:42;3.50;99.90
46976;DHT22;32724;51.094;6.996;2023-11-18T04:41:08;3.50;99.90
46976;DHT22;32724;51.094;6.996;2023-11-18T04:43:33;3.50;99.90
46976;DHT22;32724;51.094;6.996;2023-11-18T04:45:59;3.50;99.90
46976;DHT22;32724;51.094;6.996;2023-11-18T04:48:25;3.50;99.90
46976;DHT22;32724;51.094;6.996;2023-11-18T04:50:50;3.50;99.90
46976;DHT22;32724;51.094;6.996;2023-11-18T04:53:16;3.50;99.90
46976;DHT22;32724;51.094;6.996;2023-11-18T04:55:42;3.50;99.90
46976;DHT22;32724;51.094;6.996;2023-11-18T04:58:08;3.60;99.90
46976;DHT22;32724;51.094;6.996;2023-11-18T05:00:38;3.60;99.90
46976;DHT22;32724;51.094;6.996;2023-11-18T05:03:05;3.60;99.90
46976;DHT22;32724;51.094;6.996;2023-11-18T05:05:38;3.70;99.90
46976;DHT22;32724;51.094;6.996;2023-11-18T05:08:04;3.70;99.90
46976;DHT22;32724;51.094;6.996;2023-11-18T05:10:32;3.70;99.90
46976;DHT22;32724;51.094;6.996;2023-11-18T05:12:58;3.80;99.90
46976;DHT22;32724;51.094;6.996;2023-11-18T05:15:24;3.80;99.90
46976;DHT22;32724;51.094;6.996;2023-11-18T05:17:53;3.80;99.90
46976;DHT22;32724;51.094;6.996;2023-11-18T05:20:20;3.70;99.90
46976;DHT22;32724;51.094;6.996;2023-11-18T05:22:46;3.70;99.90
46976;DHT22;32724;51.094;6.996;2023-11-18T05:25:11;3.70;99.90
46976;DHT22;32724;51.094;6.996;2023-11-18T05:27:37;3.80;99.90
46976;DHT22;32724;51.094;6.996;2023-11-18T05:30:06;3.70;99.90
46976;DHT22;32724;51.094;6.996;2023-11-18T05:32:32;3.70;99.90
46976;DHT22;32724;51.094;6.996;2023-11-18T05:34:58;3.70;99.90
46976;DHT22;32724;51.094;6.996;2023-11-18T05:37:24;3.70;99.90
46976;DHT22;32724;51.094;6.996;2023-11-18T05:39:50;3.80;99.90
46976;DHT22;32724;51.094;6.996;2023-11-18T05:42:25;3.80;99.90
46976;DHT22;32724;51.094;6.996;2023-11-18T05:44:51;3.90;99.90
46976;DHT22;32724;51.094;6.996;2023-11-18T05:47:23;3.90;99.90
46976;DHT22;32724;51.094;6.996;2023-11-18T05:49:49;4.00;99.90
46976;DHT22;32724;51.094;6.996;2023-11-18T05:52:14;4.10;99.90
46976;DHT22;32724;51.094;6.996;2023-11-18T05:54:40;4.10;99.90
46976;DHT22;32724;51.094;6.996;2023-11-18T05:57:05;4.10;99.90
46976;DHT22;32724;51.094;6.996;2023-11-18T05:59:31;4.20;99.90
46976;DHT22;32724;51.094;6.996;2023-11-18T06:01:56;4.20;99.90
46976;DHT22;32724;51.094;6.996;2023-11-18T06:04:22;4.20;99.90
46976;DHT22;32724;51.094;6.996;2023-11-18T06:06:48;4.20;99.90
46976;DHT22;32724;51.094;6.996;2023-11-18T06:09:13;4.20;99.90
46976;DHT22;32724;51.094;6.996;2023-11-18T06:11:46;4.30;99.90
46976;DHT22;32724;51.094;6.996;2023-11-18T06:14:12;4.30;99.90
46976;DHT22;32724;51.094;6.996;2023-11-18T06:16:38;4.40;99.90
46976;DHT22;32724;51.094;6.996;2023-11-18T06:19:06;4.40;99.90
46976;DHT22;32724;51.094;6.996;2023-11-18T06:21:32;4.40;99.90
46976;DHT22;32724;51.094;6.996;2023-11-18T06:23:59;4.20;99.90
46976;DHT22;32724;51.094;6.996;2023-11-18T06:26:25;4.30;99.90
46976;DHT22;32724;51.094;6.996;2023-11-18T06:28:54;4.30;99.90
46976;DHT22;32724;51.094;6.996;2023-11-18T06:31:20;4.30;99.90
46976;DHT22;32724;51.094;6.996;2023-11-18T06:33:47;4.40;99.90
46976;DHT22;32724;51.094;6.996;2023-11-18T06:36:16;4.40;99.90
46976;DHT22;32724;51.094;6.996;2023-11-18T06:38:43;4.40;99.90
46976;DHT22;32724;51.094;6.996;2023-11-18T06:41:12;4.40;99.90
46976;DHT22;32724;51.094;6.996;2023-11-18T06:43:40;4.50;99.90
46976;DHT22;32724;51.094;6.996;2023-11-18T06:46:23;4.50;99.90
46976;DHT22;32724;51.094;6.996;2023-11-18T06:48:49;4.50;99.90
46976;DHT22;32724;51.094;6.996;2023-11-18T06:51:16;4.60;99.90
46976;DHT22;32724;51.094;6.996;2023-11-18T06:53:42;4.60;99.90
46976;DHT22;32724;51.094;6.996;2023-11-18T06:56:09;4.60;99.90
46976;DHT22;32724;51.094;6.996;2023-11-18T06:58:38;4.60;99.90
46976;DHT22;32724;51.094;6.996;2023-11-18T07:01:04;4.60;99.90
46976;DHT22;32724;51.094;6.996;2023-11-18T07:03:31;4.60;99.90
46976;DHT22;32724;51.094;6.996;2023-11-18T07:05:57;4.60;99.90
46976;DHT22;32724;51.094;6.996;2023-11-18T07:08:23;4.70;99.90
46976;DHT22;32724;51.094;6.996;2023-11-18T07:10:49;4.70;99.90
46976;DHT22;32724;51.094;6.996;2023-11-18T07:13:15;4.70;99.90
46976;DHT22;32724;51.094;6.996;2023-11-18T07:15:41;4.80;99.90
46976;DHT22;32724;51.094;6.996;2023-11-18T07:18:07;4.80;99.90
46976;DHT22;32724;51.094;6.996;2023-11-18T07:20:34;4.80;99.90
46976;DHT22;32724;51.094;6.996;2023-11-18T07:23:00;4.90;99.90
46976;DHT22;32724;51.094;6.996;2023-11-18T07:25:26;4.70;99.90
46976;DHT22;32724;51.094;6.996;2023-11-18T07:27:51;4.80;99.90
46976;DHT22;32724;51.094;6.996;2023-11-18T07:30:17;4.80;99.90
46976;DHT22;32724;51.094;6.996;2023-11-18T07:32:43;4.80;99.90
46976;DHT22;32724;51.094;6.996;2023-11-18T07:35:09;4.80;99.90
46976;DHT22;32724;51.094;6.996;2023-11-18T07:37:36;4.80;99.90
46976;DHT22;32724;51.094;6.996;2023-11-18T07:40:03;4.90;99.90
46976;DHT22;32724;51.094;6.996;2023-11-18T07:42:31;4.80;99.90
46976;DHT22;32724;51.094;6.996;2023-11-18T07:45:04;4.70;99.90
46976;DHT22;32724;51.094;6.996;2023-11-18T07:47:32;4.70;99.90
46976;DHT22;32724;51.094;6.996;2023-11-18T07:49:59;4.60;99.90
46976;DHT22;32724;51.094;6.996;2023-11-18T07:52:28;4.70;99.90
46976;DHT22;32724;51.094;6.996;2023-11-18T07:54:54;4.90;99.90
46976;DHT22;32724;51.094;6.996;2023-11-18T07:57:20;5.10;99.90
46976;DHT22;32724;51.094;6.996;2023-11-18T07:59:45;5.20;99.90
46976;DHT22;32724;51.094;6.996;2023-11-18T08:02:11;5.30;99.90
46976;DHT22;32724;51.094;6.996;2023-11-18T08:04:39;5.40;99.90
46976;DHT22;32724;51.094;6.996;2023-11-18T08:07:07;5.40;99.90
46976;DHT22;32724;51.094;6.996;2023-11-18T08:09:36;5.50;99.90
46976;DHT22;32724;51.094;6.996;2023-11-18T08:12:05;5.50;99.90
46976;DHT22;32724;51.094;6.996;2023-11-18T08:14:31;5.60;99.90
46976;DHT22;32724;51.094;6.996;2023-11-18T08:16:57;5.70;99.90
46976;DHT22;32724;51.094;6.996;2023-11-18T08:19:25;5.70;99.90
46976;DHT22;32724;51.094;6.996;2023-11-18T08:21:51;5.70;99.90
46976;DHT22;32724;51.094;6.996;2023-11-18T08:24:17;5.80;99.90
46976;DHT22;32724;51.094;6.996;2023-11-18T08:26:43;5.80;99.90
46976;DHT22;32724;51.094;6.996;2023-11-18T08:29:08;5.80;99.90
46976;DHT22;32724;51.094;6.996;2023-11-18T08:31:34;5.80;99.90
46976;DHT22;32724;51.094;6.996;2023-11-18T08:34:00;5.90;99.90
46976;DHT22;32724;51.094;6.996;2023-11-18T08:36:26;6.00;99.90
46976;DHT22;32724;51.094;6.996;2023-11-18T08:38:52;5.90;99.90
46976;DHT22;32724;51.094;6.996;2023-11-18T08:41:18;5.80;99.90
46976;DHT22;32724;51.094;6.996;2023-11-18T08:43:45;5.90;99.90
46976;DHT22;32724;51.094;6.996;2023-11-18T08:46:12;5.90;99.90
46976;DHT22;32724;51.094;6.996;2023-11-18T08:48:39;6.00;99.90
46976;DHT22;32724;51.094;6.996;2023-11-18T08:51:05;6.00;99.90
46976;DHT22;32724;51.094;6.996;2023-11-18T08:53:33;6.10;99.90
46976;DHT22;32724;51.094;6.996;2023-11-18T08:56:10;6.20;99.90
46976;DHT22;32724;51.094;6.996;2023-11-18T08:58:41;6.20;99.90
46976;DHT22;32724;51.094;6.996;2023-11-18T09:01:06;6.30;99.90
46976;DHT22;32724;51.094;6.996;2023-11-18T09:03:39;6.30;99.90
46976;DHT22;32724;51.094;6.996;2023-11-18T09:06:10;6.30;99.90
46976;DHT22;32724;51.094;6.996;2023-11-18T09:08:51;6.40;99.90
46976;DHT22;32724;51.094;6.996;2023-11-18T09:11:21;6.50;99.90
46976;DHT22;32724;51.094;6.996;2023-11-18T09:13:48;6.40;99.90
46976;DHT22;32724;51.094;6.996;2023-11-18T09:16:16;6.50;99.90
46976;DHT22;32724;51.094;6.996;2023-11-18T09:18:44;6.30;99.90
46976;DHT22;32724;51.094;6.996;2023-11-18T09:21:11;6.30;99.90
46976;DHT22;32724;51.094;6.996;2023-11-18T09:23:41;6.40;99.90
46976;DHT22;32724;51.094;6.996;2023-11-18T09:26:07;6.40;99.90
46976;DHT22;32724;51.094;6.996;2023-11-18T09:28:34;6.40;99.90
46976;DHT22;32724;51.094;6.996;2023-11-18T09:31:00;6.40;99.90
46976;DHT22;32724;51.094;6.996;2023-11-18T09:33:32;6.50;99.90
46976;DHT22;32724;51.094;6.996;2023-11-18T09:36:06;6.60;99.90
46976;DHT22;32724;51.094;6.996;2023-11-18T09:38:36;6.60;99.90
46976;DHT22;32724;51.094;6.996;2023-11-18T09:41:04;6.60;99.90
46976;DHT22;32724;51.094;6.996;2023-11-18T09:43:35;6.60;99.90
46976;DHT22;32724;51.094;6.996;2023-11-18T09:46:09;6.60;99.90
46976;DHT22;32724;51.094;6.996;2023-11-18T09:48:46;6.60;99.90
46976;DHT22;32724;51.094;6.996;2023-11-18T09:51:28;6.60;99.90
46976;DHT22;32724;51.094;6.996;2023-11-18T09:54:04;6.70;99.90
46976;DHT22;32724;51.094;6.996;2023-11-18T09:56:49;6.70;99.90
46976;DHT22;32724;51.094;6.996;2023-11-18T09:59:27;6.70;99.90
46976;DHT22;32724;51.094;6.996;2023-11-18T10:01:58;6.90;99.90
46976;DHT22;32724;51.094;6.996;2023-11-18T10:04:24;6.90;99.90
46976;DHT22;32724;51.094;6.996;2023-11-18T10:06:54;6.90;99.90
46976;DHT22;32724;51.094;6.996;2023-11-18T10:09:25;7.00;99.90
46976;DHT22;32724;51.094;6.996;2023-11-18T10:12:03;7.10;99.90
46976;DHT22;32724;51.094;6.996;2023-11-18T10:14:36;7.10;99.90
46976;DHT22;32724;51.094;6.996;2023-11-18T10:17:08;7.10;99.90
46976;DHT22;32724;51.094;6.996;2023-11-18T10:19:53;7.10;99.90
46976;DHT22;32724;51.094;6.996;2023-11-18T10:22:25;7.10;99.90
46976;DHT22;32724;51.094;6.996;2023-11-18T10:24:52;7.20;99.90
46976;DHT22;32724;51.094;6.996;2023-11-18T10:27:23;7.20;99.90
46976;DHT22;32724;51.094;6.996;2023-11-18T10:29:54;7.30;99.90
46976;DHT22;32724;51.094;6.996;2023-11-18T10:32:21;7.10;99.90
46976;DHT22;32724;51.094;6.996;2023-11-18T10:34:48;7.10;99.90
46976;DHT22;32724;51.094;6.996;2023-11-18T10:37:15;7.10;99.90
46976;DHT22;32724;51.094;6.996;2023-11-18T10:39:46;7.10;99.90
46976;DHT22;32724;51.094;6.996;2023-11-18T10:42:12;7.10;99.90
46976;DHT22;32724;51.094;6.996;2023-11-18T10:44:40;7.20;99.90
46976;DHT22;32724;51.094;6.996;2023-11-18T10:47:19;7.20;99.90
46976;DHT22;32724;51.094;6.996;2023-11-18T10:49:46;7.20;99.90
46976;DHT22;32724;51.094;6.996;2023-11-18T10:52:11;7.20;99.90
46976;DHT22;32724;51.094;6.996;2023-11-18T10:54:50;7.30;99.90
46976;DHT22;32724;51.094;6.996;2023-11-18T10:57:20;7.40;99.90
46976;DHT22;32724;51.094;6.996;2023-11-18T11:00:07;7.40;99.90
46976;DHT22;32724;51.094;6.996;2023-11-18T11:02:40;7.30;99.90
46976;DHT22;32724;51.094;6.996;2023-11-18T11:05:10;7.30;99.90
46976;DHT22;32724;51.094;6.996;2023-11-18T11:07:42;7.30;99.90
46976;DHT22;32724;51.094;6.996;2023-11-18T11:10:08;7.30;99.90
46976;DHT22;32724;51.094;6.996;2023-11-18T11:12:38;7.30;99.90
46976;DHT22;32724;51.094;6.996;2023-11-18T11:15:26;7.30;99.90
46976;DHT22;32724;51.094;6.996;2023-11-18T11:17:54;7.30;99.90
46976;DHT22;32724;51.094;6.996;2023-11-18T11:20:34;7.30;99.90
46976;DHT22;32724;51.094;6.996;2023-11-18T11:31:35;7.60;99.90
46976;DHT22;32724;51.094;6.996;2023-11-18T11:34:06;7.70;99.90
46976;DHT22;32724;51.094;6.996;2023-11-18T11:36:43;7.70;99.90
46976;DHT22;32724;51.094;6.996;2023-11-18T11:39:12;7.70;99.90
46976;DHT22;32724;51.094;6.996;2023-11-18T11:41:45;7.60;99.90
46976;DHT22;32724;51.094;6.996;2023-11-18T11:44:16;7.60;99.90
46976;DHT22;32724;51.094;6.996;2023-11-18T11:46:48;7.50;99.90
46976;DHT22;32724;51.094;6.996;2023-11-18T11:49:22;7.30;99.90
46976;DHT22;32724;51.094;6.996;2023-11-18T11:52:04;7.30;99.90
46976;DHT22;32724;51.094;6.996;2023-11-18T11:54:42;7.20;99.90
46976;DHT22;32724;51.094;6.996;2023-11-18T11:57:10;7.30;99.90
46976;DHT22;32724;51.094;6.996;2023-11-18T12:02:13;7.40;99.90
46976;DHT22;32724;51.094;6.996;2023-11-18T12:04:44;7.40;99.90
46976;DHT22;32724;51.094;6.996;2023-11-18T12:07:10;7.40;99.90
46976;DHT22;32724;51.094;6.996;2023-11-18T12:09:36;7.40;99.90
46976;DHT22;32724;51.094;6.996;2023-11-18T12:12:05;7.40;99.90
46976;DHT22;32724;51.094;6.996;2023-11-18T12:14:51;7.40;99.90
46976;DHT22;32724;51.094;6.996;2023-11-18T12:17:26;7.40;99.90
46976;DHT22;32724;51.094;6.996;2023-11-18T12:19:58;7.30;99.90
46976;DHT22;32724;51.094;6.996;2023-11-18T12:23:04;7.30;99.90
46976;DHT22;32724;51.094;6.996;2023-11-18T12:25:39;7.40;99.90
46976;DHT22;32724;51.094;6.996;2023-11-18T12:28:16;7.50;99.90
46976;DHT22;32724;51.094;6.996;2023-11-18T12:30:43;7.50;99.90
46976;DHT22;32724;51.094;6.996;2023-11-18T12:33:20;7.50;99.90
46976;DHT22;32724;51.094;6.996;2023-11-18T12:46:50;7.50;99.90
46976;DHT22;32724;51.094;6.996;2023-11-18T12:49:19;7.30;99.90
46976;DHT22;32724;51.094;6.996;2023-11-18T12:51:50;7.30;99.90
46976;DHT22;32724;51.094;6.996;2023-11-18T12:54:18;7.30;99.90
46976;DHT22;32724;51.094;6.996;2023-11-18T12:56:44;7.30;99.90
46976;DHT22;32724;51.094;6.996;2023-11-18T12:59:16;7.40;99.90
46976;DHT22;32724;51.094;6.996;2023-11-18T13:01:44;7.40;99.90
46976;DHT22;32724;51.094;6.996;2023-11-18T13:04:17;7.50;99.90
46976;DHT22;32724;51.094;6.996;2023-11-18T13:06:45;7.40;99.90
46976;DHT22;32724;51.094;6.996;2023-11-18T13:09:11;7.50;99.90
46976;DHT22;32724;51.094;6.996;2023-11-18T13:11:37;7.50;99.90
46976;DHT22;32724;51.094;6.996;2023-11-18T13:14:08;7.50;99.90
46976;DHT22;32724;51.094;6.996;2023-11-18T13:16:34;7.50;99.90
46976;DHT22;32724;51.094;6.996;2023-11-18T13:18:59;7.50;99.90
46976;DHT22;32724;51.094;6.996;2023-11-18T13:21:25;7.60;99.90
46976;DHT22;32724;51.094;6.996;2023-11-18T13:23:54;7.60;99.90
46976;DHT22;32724;51.094;6.996;2023-11-18T13:26:20;7.60;99.90
46976;DHT22;32724;51.094;6.996;2023-11-18T13:28:47;7.60;99.90
46976;DHT22;32724;51.094;6.996;2023-11-18T13:31:14;7.60;99.90
46976;DHT22;32724;51.094;6.996;2023-11-18T13:33:43;7.60;99.90
46976;DHT22;32724;51.094;6.996;2023-11-18T13:36:09;7.60;99.90
46976;DHT22;32724;51.094;6.996;2023-11-18T13:38:38;7.60;99.90
46976;DHT22;32724;51.094;6.996;2023-11-18T13:41:04;7.60;99.90
46976;DHT22;32724;51.094;6.996;2023-11-18T13:43:45;7.60;99.90
46976;DHT22;32724;51.094;6.996;2023-11-18T13:46:13;7.60;99.90
46976;DHT22;32724;51.094;6.996;2023-11-18T13:48:39;7.60;99.90
46976;DHT22;32724;51.094;6.996;2023-11-18T13:51:10;7.60;99.90
46976;DHT22;32724;51.094;6.996;2023-11-18T13:53:41;7.60;99.90
46976;DHT22;32724;51.094;6.996;2023-11-18T13:56:12;7.70;99.90
46976;DHT22;32724;51.094;6.996;2023-11-18T13:58:38;7.70;99.90
46976;DHT22;32724;51.094;6.996;2023-11-18T14:01:09;7.70;99.90
46976;DHT22;32724;51.094;6.996;2023-11-18T14:03:36;7.60;99.90
46976;DHT22;32724;51.094;6.996;2023-11-18T14:06:05;7.60;99.90
46976;DHT22;32724;51.094;6.996;2023-11-18T14:08:30;7.60;99.90
46976;DHT22;32724;51.094;6.996;2023-11-18T14:10:56;7.70;99.90
46976;DHT22;32724;51.094;6.996;2023-11-18T14:13:21;7.70;99.90
46976;DHT22;32724;51.094;6.996;2023-11-18T14:15:48;7.80;99.90
46976;DHT22;32724;51.094;6.996;2023-11-18T14:18:20;7.80;99.90
46976;DHT22;32724;51.094;6.996;2023-11-18T14:20:46;7.80;99.90
46976;DHT22;32724;51.094;6.996;2023-11-18T14:23:13;7.80;99.90
46976;DHT22;32724;51.094;6.996;2023-11-18T14:25:39;7.80;99.90
46976;DHT22;32724;51.094;6.996;2023-11-18T14:28:05;7.80;99.90
46976;DHT22;32724;51.094;6.996;2023-11-18T14:30:34;7.80;99.90
46976;DHT22;32724;51.094;6.996;2023-11-18T14:32:59;7.80;99.90
46976;DHT22;32724;51.094;6.996;2023-11-18T14:35:26;7.80;99.90
46976;DHT22;32724;51.094;6.996;2023-11-18T14:37:52;7.70;99.90
46976;DHT22;32724;51.094;6.996;2023-11-18T14:40:17;7.70;99.90
46976;DHT22;32724;51.094;6.996;2023-11-18T14:42:45;7.70;99.90
46976;DHT22;32724;51.094;6.996;2023-11-18T14:45:13;7.70;99.90
46976;DHT22;32724;51.094;6.996;2023-11-18T14:47:39;7.60;99.90
46976;DHT22;32724;51.094;6.996;2023-11-18T14:50:06;7.60;99.90
46976;DHT22;32724;51.094;6.996;2023-11-18T14:52:40;7.60;99.90
46976;DHT22;32724;51.094;6.996;2023-11-18T14:55:06;7.50;99.90
46976;DHT22;32724;51.094;6.996;2023-11-18T14:57:40;7.50;99.90
46976;DHT22;32724;51.094;6.996;2023-11-18T15:00:07;7.50;99.90
46976;DHT22;32724;51.094;6.996;2023-11-18T15:02:33;7.50;99.90
46976;DHT22;32724;51.094;6.996;2023-11-18T15:05:00;7.40;99.90
46976;DHT22;32724;51.094;6.996;2023-11-18T15:07:28;7.50;99.90
46976;DHT22;32724;51.094;6.996;2023-11-18T15:09:53;7.50;99.90
46976;DHT22;32724;51.094;6.996;2023-11-18T15:12:19;7.50;99.90
46976;DHT22;32724;51.094;6.996;2023-11-18T15:14:45;7.50;99.90
46976;DHT22;32724;51.094;6.996;2023-11-18T15:17:10;7.50;99.90
46976;DHT22;32724;51.094;6.996;2023-11-18T15:19:39;7.40;99.90
46976;DHT22;32724;51.094;6.996;2023-11-18T15:22:04;7.40;99.90
46976;DHT22;32724;51.094;6.996;2023-11-18T15:24:30;7.40;99.90
46976;DHT22;32724;51.094;6.996;2023-11-18T15:26:57;7.40;99.90
46976;DHT22;32724;51.094;6.996;2023-11-18T15:29:25;7.40;99.90
46976;DHT22;32724;51.094;6.996;2023-11-18T15:31:58;7.40;99.90
46976;DHT22;32724;51.094;6.996;2023-11-18T15:34:24;7.30;99.90
46976;DHT22;32724;51.094;6.996;2023-11-18T15:36:50;7.30;99.90
46976;DHT22;32724;51.094;6.996;2023-11-18T15:39:17;7.30;99.90
46976;DHT22;32724;51.094;6.996;2023-11-18T15:41:42;7.30;99.90
46976;DHT22;32724;51.094;6.996;2023-11-18T15:44:08;7.30;99.90
46976;DHT22;32724;51.094;6.996;2023-11-18T15:46:34;7.30;99.90
46976;DHT22;32724;51.094;6.996;2023-11-18T15:49:03;7.30;99.90
46976;DHT22;32724;51.094;6.996;2023-11-18T15:51:28;7.30;99.90
46976;DHT22;32724;51.094;6.996;2023-11-18T15:53:56;7.30;99.90
46976;DHT22;32724;51.094;6.996;2023-11-18T15:56:21;7.20;99.90
46976;DHT22;32724;51.094;6.996;2023-11-18T15:58:48;7.30;99.90
46976;DHT22;32724;51.094;6.996;2023-11-18T16:01:13;7.30;99.90
46976;DHT22;32724;51.094;6.996;2023-11-18T16:03:39;7.40;99.90
46976;DHT22;32724;51.094;6.996;2023-11-18T16:06:05;7.30;99.90
46976;DHT22;32724;51.094;6.996;2023-11-18T16:08:31;7.30;99.90
46976;DHT22;32724;51.094;6.996;2023-11-18T16:10:56;7.20;99.90
46976;DHT22;32724;51.094;6.996;2023-11-18T16:13:22;7.30;99.90